sensor_id;sensor_type;location;lat;lon;timestamp;temperature;humidity
41678;DHT22;27364;49.026;8.712;2023-03-23T00:01:04;13.90;90.60
41678;DHT22;27364;49.026;8.712;2023-03-23T00:03:30;13.90;90.60
41678;DHT22;27364;49.026;8.712;2023-03-23T00:06:02;13.90;90.80
41678;DHT22;27364;49.026;8.712;2023-03-23T00:08:31;13.80;91.30
41678;DHT22;27364;49.026;8.712;2023-03-23T00:10:57;13.70;91.40
41678;DHT22;27364;49.026;8.712;2023-03-23T00:13:24;13.70;91.50
41678;DHT22;27364;49.026;8.712;2023-03-23T00:15:50;13.70;91.10
41678;DHT22;27364;49.026;8.712;2023-03-23T00:18:18;13.70;91.20
41678;DHT22;27364;49.026;8.712;2023-03-23T00:20:55;13.60;91.30
41678;DHT22;27364;49.026;8.712;2023-03-23T00:23:24;13.60;91.90
41678;DHT22;27364;49.026;8.712;2023-03-23T00:25:55;13.60;91.50
41678;DHT22;27364;49.026;8.712;2023-03-23T00:28:25;13.60;91.30
41678;DHT22;27364;49.026;8.712;2023-03-23T00:33:22;13.70;90.40
41678;DHT22;27364;49.026;8.712;2023-03-23T00:35:49;13.70;90.40
41678;DHT22;27364;49.026;8.712;2023-03-23T00:38:18;13.70;90.00
41678;DHT22;27364;49.026;8.712;2023-03-23T00:40:45;13.80;90.10
41678;DHT22;27364;49.026;8.712;2023-03-23T00:43:17;13.70;90.20
41678;DHT22;27364;49.026;8.712;2023-03-23T00:45:43;13.70;90.40
41678;DHT22;27364;49.026;8.712;2023-03-23T00:48:12;13.70;90.10
41678;DHT22;27364;49.026;8.712;2023-03-23T00:50:39;13.90;89.60
41678;DHT22;27364;49.026;8.712;2023-03-23T00:53:06;13.90;89.60
41678;DHT22;27364;49.026;8.712;2023-03-23T00:55:32;13.80;90.00
41678;DHT22;27364;49.026;8.712;2023-03-23T00:57:59;13.80;90.50
41678;DHT22;27364;49.026;8.712;2023-03-23T01:00:25;13.80;90.40
41678;DHT22;27364;49.026;8.712;2023-03-23T01:02:53;13.90;88.90
41678;DHT22;27364;49.026;8.712;2023-03-23T01:05:18;13.90;89.10
41678;DHT22;27364;49.026;8.712;2023-03-23T01:07:44;13.90;89.40
41678;DHT22;27364;49.026;8.712;2023-03-23T01:10:11;13.90;89.20
41678;DHT22;27364;49.026;8.712;2023-03-23T01:12:45;14.00;88.30
41678;DHT22;27364;49.026;8.712;2023-03-23T01:15:17;14.00;88.40
41678;DHT22;27364;49.026;8.712;2023-03-23T01:17:45;14.00;88.40
41678;DHT22;27364;49.026;8.712;2023-03-23T01:20:15;14.00;88.20
41678;DHT22;27364;49.026;8.712;2023-03-23T01:22:41;14.10;86.50
41678;DHT22;27364;49.026;8.712;2023-03-23T01:25:09;14.30;86.50
41678;DHT22;27364;49.026;8.712;2023-03-23T01:27:36;14.30;86.40
41678;DHT22;27364;49.026;8.712;2023-03-23T01:30:04;14.20;86.20
41678;DHT22;27364;49.026;8.712;2023-03-23T01:32:29;14.20;86.10
41678;DHT22;27364;49.026;8.712;2023-03-23T01:34:56;14.40;85.30
41678;DHT22;27364;49.026;8.712;2023-03-23T01:37:22;14.40;84.80
41678;DHT22;27364;49.026;8.712;2023-03-23T01:39:55;14.40;84.50
41678;DHT22;27364;49.026;8.712;2023-03-23T01:42:26;14.50;84.20
41678;DHT22;27364;49.026;8.712;2023-03-23T01:47:21;14.40;84.60
41678;DHT22;27364;49.026;8.712;2023-03-23T01:49:49;14.50;83.40
41678;DHT22;27364;49.026;8.712;2023-03-23T01:52:19;14.60;82.70
41678;DHT22;27364;49.026;8.712;2023-03-23T01:54:49;14.70;82.00
41678;DHT22;27364;49.026;8.712;2023-03-23T01:57:18;14.80;81.60
41678;DHT22;27364;49.026;8.712;2023-03-23T01:59:48;14.70;81.40
41678;DHT22;27364;49.026;8.712;2023-03-23T02:02:15;14.80;80.90
41678;DHT22;27364;49.026;8.712;2023-03-23T02:04:41;14.90;79.90
41678;DHT22;27364;49.026;8.712;2023-03-23T02:07:08;15.00;79.60
41678;DHT22;27364;49.026;8.712;2023-03-23T02:09:34;15.00;79.70
41678;DHT22;27364;49.026;8.712;2023-03-23T02:12:00;15.00;79.40
41678;DHT22;27364;49.026;8.712;2023-03-23T02:14:27;15.00;79.10
41678;DHT22;27364;49.026;8.712;2023-03-23T02:17:20;14.90;79.90
41678;DHT22;27364;49.026;8.712;2023-03-23T02:31:15;14.50;82.90
41678;DHT22;27364;49.026;8.712;2023-03-23T02:36:28;14.50;83.20
41678;DHT22;27364;49.026;8.712;2023-03-23T02:39:12;14.40;84.00
41678;DHT22;27364;49.026;8.712;2023-03-23T02:41:53;14.40;83.90
41678;DHT22;27364;49.026;8.712;2023-03-23T02:44:23;14.40;84.20
41678;DHT22;27364;49.026;8.712;2023-03-23T02:46:51;14.40;84.50
41678;DHT22;27364;49.026;8.712;2023-03-23T02:49:18;14.40;84.90
41678;DHT22;27364;49.026;8.712;2023-03-23T02:51:46;14.30;85.00
41678;DHT22;27364;49.026;8.712;2023-03-23T02:54:13;14.40;85.40
41678;DHT22;27364;49.026;8.712;2023-03-23T02:56:40;14.40;86.00
41678;DHT22;27364;49.026;8.712;2023-03-23T02:59:06;14.40;86.40
41678;DHT22;27364;49.026;8.712;2023-03-23T03:04:13;14.30;87.50
41678;DHT22;27364;49.026;8.712;2023-03-23T03:07:00;14.20;87.60
41678;DHT22;27364;49.026;8.712;2023-03-23T03:09:40;14.20;88.00
41678;DHT22;27364;49.026;8.712;2023-03-23T03:12:35;14.20;88.60
41678;DHT22;27364;49.026;8.712;2023-03-23T03:17:42;14.10;89.00
41678;DHT22;27364;49.026;8.712;2023-03-23T03:20:12;14.20;89.20
41678;DHT22;27364;49.026;8.712;2023-03-23T03:22:41;14.10;89.70
41678;DHT22;27364;49.026;8.712;2023-03-23T03:25:10;14.10;89.30
41678;DHT22;27364;49.026;8.712;2023-03-23T03:27:39;14.00;89.90
41678;DHT22;27364;49.026;8.712;2023-03-23T03:30:09;14.10;89.50
41678;DHT22;27364;49.026;8.712;2023-03-23T03:32:40;14.20;89.50
41678;DHT22;27364;49.026;8.712;2023-03-23T03:35:06;14.10;90.00
41678;DHT22;27364;49.026;8.712;2023-03-23T03:37:36;14.10;90.20
41678;DHT22;27364;49.026;8.712;2023-03-23T03:40:10;14.10;90.10
41678;DHT22;27364;49.026;8.712;2023-03-23T03:42:42;14.10;90.30
41678;DHT22;27364;49.026;8.712;2023-03-23T03:45:09;14.00;90.30
41678;DHT22;27364;49.026;8.712;2023-03-23T03:47:36;14.10;90.30
41678;DHT22;27364;49.026;8.712;2023-03-23T03:50:02;14.00;90.40
41678;DHT22;27364;49.026;8.712;2023-03-23T03:52:28;14.00;90.50
41678;DHT22;27364;49.026;8.712;2023-03-23T03:54:54;13.90;91.10
41678;DHT22;27364;49.026;8.712;2023-03-23T03:57:19;13.90;91.00
41678;DHT22;27364;49.026;8.712;2023-03-23T03:59:45;13.90;91.40
41678;DHT22;27364;49.026;8.712;2023-03-23T04:02:12;13.90;91.20
41678;DHT22;27364;49.026;8.712;2023-03-23T04:04:41;13.90;91.40
41678;DHT22;27364;49.026;8.712;2023-03-23T04:07:10;13.90;91.40
41678;DHT22;27364;49.026;8.712;2023-03-23T04:09:40;13.80;91.30
41678;DHT22;27364;49.026;8.712;2023-03-23T04:12:06;13.90;91.20
41678;DHT22;27364;49.026;8.712;2023-03-23T04:14:32;13.80;91.50
41678;DHT22;27364;49.026;8.712;2023-03-23T04:16:58;13.80;91.50
41678;DHT22;27364;49.026;8.712;2023-03-23T04:19:24;13.70;91.70
41678;DHT22;27364;49.026;8.712;2023-03-23T04:21:51;13.70;92.40
41678;DHT22;27364;49.026;8.712;2023-03-23T04:24:17;13.60;93.20
41678;DHT22;27364;49.026;8.712;2023-03-23T04:26:47;13.60;93.70
41678;DHT22;27364;49.026;8.712;2023-03-23T04:29:12;13.50;93.70
41678;DHT22;27364;49.026;8.712;2023-03-23T04:31:38;13.50;93.80
41678;DHT22;27364;49.026;8.712;2023-03-23T04:34:05;13.40;93.80
41678;DHT22;27364;49.026;8.712;2023-03-23T04:36:30;13.40;93.80
41678;DHT22;27364;49.026;8.712;2023-03-23T04:38:59;13.40;93.70
41678;DHT22;27364;49.026;8.712;2023-03-23T04:41:26;13.40;93.70
41678;DHT22;27364;49.026;8.712;2023-03-23T04:43:52;13.40;94.00
41678;DHT22;27364;49.026;8.712;2023-03-23T04:46:19;13.40;94.20
41678;DHT22;27364;49.026;8.712;2023-03-23T04:48:46;13.40;93.90
41678;DHT22;27364;49.026;8.712;2023-03-23T04:51:12;13.50;93.40
41678;DHT22;27364;49.026;8.712;2023-03-23T04:53:38;13.50;93.20
41678;DHT22;27364;49.026;8.712;2023-03-23T04:56:04;13.60;92.90
41678;DHT22;27364;49.026;8.712;2023-03-23T04:58:30;13.80;92.20
41678;DHT22;27364;49.026;8.712;2023-03-23T05:01:00;13.90;91.40
41678;DHT22;27364;49.026;8.712;2023-03-23T05:03:25;14.10;90.60
41678;DHT22;27364;49.026;8.712;2023-03-23T05:05:53;14.40;90.10
41678;DHT22;27364;49.026;8.712;2023-03-23T05:08:24;14.40;89.30
41678;DHT22;27364;49.026;8.712;2023-03-23T05:10:52;14.60;87.40
41678;DHT22;27364;49.026;8.712;2023-03-23T05:13:18;14.80;86.00
41678;DHT22;27364;49.026;8.712;2023-03-23T05:15:44;15.00;84.30
41678;DHT22;27364;49.026;8.712;2023-03-23T05:18:09;15.20;82.80
41678;DHT22;27364;49.026;8.712;2023-03-23T05:20:36;15.30;81.80
41678;DHT22;27364;49.026;8.712;2023-03-23T05:23:02;15.40;81.50
41678;DHT22;27364;49.026;8.712;2023-03-23T05:25:27;15.30;84.00
41678;DHT22;27364;49.026;8.712;2023-03-23T05:27:53;15.30;81.40
41678;DHT22;27364;49.026;8.712;2023-03-23T05:30:20;15.20;83.40
41678;DHT22;27364;49.026;8.712;2023-03-23T05:32:47;15.20;85.90
41678;DHT22;27364;49.026;8.712;2023-03-23T05:35:17;15.10;89.60
41678;DHT22;27364;49.026;8.712;2023-03-23T05:37:43;14.90;91.60
41678;DHT22;27364;49.026;8.712;2023-03-23T05:40:09;14.70;93.10
41678;DHT22;27364;49.026;8.712;2023-03-23T05:42:38;14.60;94.60
41678;DHT22;27364;49.026;8.712;2023-03-23T05:45:06;14.50;96.90
41678;DHT22;27364;49.026;8.712;2023-03-23T05:47:32;14.30;98.90
41678;DHT22;27364;49.026;8.712;2023-03-23T05:49:58;14.20;98.20
41678;DHT22;27364;49.026;8.712;2023-03-23T05:52:24;14.00;99.10
41678;DHT22;27364;49.026;8.712;2023-03-23T05:54:50;13.90;99.70
41678;DHT22;27364;49.026;8.712;2023-03-23T05:57:16;13.80;99.90
41678;DHT22;27364;49.026;8.712;2023-03-23T05:59:43;13.80;99.90
41678;DHT22;27364;49.026;8.712;2023-03-23T06:02:08;13.70;99.90
41678;DHT22;27364;49.026;8.712;2023-03-23T06:04:35;13.70;99.90
41678;DHT22;27364;49.026;8.712;2023-03-23T06:07:03;13.60;99.90
41678;DHT22;27364;49.026;8.712;2023-03-23T06:09:29;13.60;99.90
41678;DHT22;27364;49.026;8.712;2023-03-23T06:11:55;13.60;99.90
41678;DHT22;27364;49.026;8.712;2023-03-23T06:14:21;13.50;99.90
41678;DHT22;27364;49.026;8.712;2023-03-23T06:16:48;13.50;99.90
41678;DHT22;27364;49.026;8.712;2023-03-23T06:19:16;13.40;99.90
41678;DHT22;27364;49.026;8.712;2023-03-23T06:21:42;13.40;99.90
41678;DHT22;27364;49.026;8.712;2023-03-23T06:24:09;13.40;99.90
41678;DHT22;27364;49.026;8.712;2023-03-23T06:26:37;13.40;99.90
41678;DHT22;27364;49.026;8.712;2023-03-23T06:29:05;13.30;99.90
41678;DHT22;27364;49.026;8.712;2023-03-23T06:31:38;13.30;99.90
41678;DHT22;27364;49.026;8.712;2023-03-23T06:34:05;13.40;99.90
41678;DHT22;27364;49.026;8.712;2023-03-23T06:36:30;13.30;99.90
41678;DHT22;27364;49.026;8.712;2023-03-23T06:38:56;13.30;99.90
41678;DHT22;27364;49.026;8.712;2023-03-23T06:41:24;13.30;99.90
41678;DHT22;27364;49.026;8.712;2023-03-23T06:43:50;13.30;99.90
41678;DHT22;27364;49.026;8.712;2023-03-23T06:46:16;13.30;99.90
41678;DHT22;27364;49.026;8.712;2023-03-23T06:48:41;13.30;99.90
41678;DHT22;27364;49.026;8.712;2023-03-23T06:51:07;13.30;99.90
41678;DHT22;27364;49.026;8.712;2023-03-23T06:53:33;13.30;99.90
41678;DHT22;27364;49.026;8.712;2023-03-23T06:55:59;13.30;99.90
41678;DHT22;27364;49.026;8.712;2023-03-23T06:58:25;13.30;99.90
41678;DHT22;27364;49.026;8.712;2023-03-23T07:00:55;13.30;99.90
41678;DHT22;27364;49.026;8.712;2023-03-23T07:03:22;13.30;99.90
41678;DHT22;27364;49.026;8.712;2023-03-23T07:05:48;13.40;99.90
41678;DHT22;27364;49.026;8.712;2023-03-23T07:08:13;13.40;99.90
41678;DHT22;27364;49.026;8.712;2023-03-23T07:10:39;13.40;99.90
41678;DHT22;27364;49.026;8.712;2023-03-23T07:13:04;13.40;99.90
41678;DHT22;27364;49.026;8.712;2023-03-23T07:15:30;13.40;99.90
41678;DHT22;27364;49.026;8.712;2023-03-23T07:17:56;13.40;99.90
41678;DHT22;27364;49.026;8.712;2023-03-23T07:20:22;13.40;99.90
41678;DHT22;27364;49.026;8.712;2023-03-23T07:22:47;13.40;99.90
41678;DHT22;27364;49.026;8.712;2023-03-23T07:25:13;13.40;99.90
41678;DHT22;27364;49.026;8.712;2023-03-23T07:27:38;13.40;99.90
41678;DHT22;27364;49.026;8.712;2023-03-23T07:30:05;13.40;99.90
41678;DHT22;27364;49.026;8.712;2023-03-23T07:32:30;13.40;99.90
41678;DHT22;27364;49.026;8.712;2023-03-23T07:34:56;13.40;99.90
41678;DHT22;27364;49.026;8.712;2023-03-23T07:37:25;13.40;99.90
41678;DHT22;27364;49.026;8.712;2023-03-23T07:39:50;13.40;99.90
41678;DHT22;27364;49.026;8.712;2023-03-23T07:42:16;13.50;99.90
41678;DHT22;27364;49.026;8.712;2023-03-23T07:44:41;13.50;99.90
41678;DHT22;27364;49.026;8.712;2023-03-23T07:47:07;13.50;99.90
41678;DHT22;27364;49.026;8.712;2023-03-23T07:49:33;13.40;99.90
41678;DHT22;27364;49.026;8.712;2023-03-23T07:51:59;13.40;99.90
41678;DHT22;27364;49.026;8.712;2023-03-23T07:54:28;13.30;99.90
41678;DHT22;27364;49.026;8.712;2023-03-23T07:56:54;13.30;99.90
41678;DHT22;27364;49.026;8.712;2023-03-23T07:59:20;13.20;99.90
41678;DHT22;27364;49.026;8.712;2023-03-23T08:01:45;13.10;99.90
41678;DHT22;27364;49.026;8.712;2023-03-23T08:04:11;13.10;99.90
41678;DHT22;27364;49.026;8.712;2023-03-23T08:06:38;13.10;99.90
41678;DHT22;27364;49.026;8.712;2023-03-23T08:09:05;13.00;99.90
41678;DHT22;27364;49.026;8.712;2023-03-23T08:11:37;13.00;99.90
41678;DHT22;27364;49.026;8.712;2023-03-23T08:14:03;13.00;99.90
41678;DHT22;27364;49.026;8.712;2023-03-23T08:16:29;13.00;99.90
41678;DHT22;27364;49.026;8.712;2023-03-23T08:18:55;12.90;99.90
41678;DHT22;27364;49.026;8.712;2023-03-23T08:21:22;12.90;99.90
41678;DHT22;27364;49.026;8.712;2023-03-23T08:23:48;12.90;99.90
41678;DHT22;27364;49.026;8.712;2023-03-23T08:26:14;12.90;99.90
41678;DHT22;27364;49.026;8.712;2023-03-23T08:28:40;12.90;99.90
41678;DHT22;27364;49.026;8.712;2023-03-23T08:31:09;12.90;99.90
41678;DHT22;27364;49.026;8.712;2023-03-23T08:33:36;13.00;99.90
41678;DHT22;27364;49.026;8.712;2023-03-23T08:36:02;12.90;99.90
41678;DHT22;27364;49.026;8.712;2023-03-23T08:38:28;12.90;99.90
41678;DHT22;27364;49.026;8.712;2023-03-23T08:40:59;13.00;99.90
41678;DHT22;27364;49.026;8.712;2023-03-23T08:43:25;13.00;99.90
41678;DHT22;27364;49.026;8.712;2023-03-23T08:45:51;13.00;99.90
41678;DHT22;27364;49.026;8.712;2023-03-23T08:48:17;13.00;99.90
41678;DHT22;27364;49.026;8.712;2023-03-23T08:50:43;13.00;99.90
41678;DHT22;27364;49.026;8.712;2023-03-23T08:53:09;13.00;99.90
41678;DHT22;27364;49.026;8.712;2023-03-23T08:55:34;13.00;99.90
41678;DHT22;27364;49.026;8.712;2023-03-23T08:58:00;13.10;99.90
41678;DHT22;27364;49.026;8.712;2023-03-23T09:00:26;13.00;99.90
41678;DHT22;27364;49.026;8.712;2023-03-23T09:02:53;13.10;99.90
41678;DHT22;27364;49.026;8.712;2023-03-23T09:05:21;13.10;99.90
41678;DHT22;27364;49.026;8.712;2023-03-23T09:07:50;13.20;99.90
41678;DHT22;27364;49.026;8.712;2023-03-23T09:10:17;13.20;99.90
41678;DHT22;27364;49.026;8.712;2023-03-23T09:12:44;13.20;99.90
41678;DHT22;27364;49.026;8.712;2023-03-23T09:15:13;13.20;99.90
41678;DHT22;27364;49.026;8.712;2023-03-23T09:17:42;13.20;99.90
41678;DHT22;27364;49.026;8.712;2023-03-23T09:20:09;13.30;99.90
41678;DHT22;27364;49.026;8.712;2023-03-23T09:22:44;13.40;99.90
41678;DHT22;27364;49.026;8.712;2023-03-23T09:25:11;13.40;99.90
41678;DHT22;27364;49.026;8.712;2023-03-23T09:27:38;13.50;99.90
41678;DHT22;27364;49.026;8.712;2023-03-23T09:30:10;13.40;99.90
41678;DHT22;27364;49.026;8.712;2023-03-23T09:32:37;13.40;99.90
41678;DHT22;27364;49.026;8.712;2023-03-23T09:35:05;13.40;99.90
41678;DHT22;27364;49.026;8.712;2023-03-23T09:37:35;13.30;99.90
41678;DHT22;27364;49.026;8.712;2023-03-23T09:40:02;13.20;99.90
41678;DHT22;27364;49.026;8.712;2023-03-23T09:47:44;13.00;99.90
41678;DHT22;27364;49.026;8.712;2023-03-23T09:50:19;13.00;99.90
41678;DHT22;27364;49.026;8.712;2023-03-23T09:52:52;13.00;99.90
41678;DHT22;27364;49.026;8.712;2023-03-23T09:55:20;12.90;99.90
41678;DHT22;27364;49.026;8.712;2023-03-23T09:57:57;12.90;99.90
41678;DHT22;27364;49.026;8.712;2023-03-23T10:00:37;13.00;99.90
41678;DHT22;27364;49.026;8.712;2023-03-23T10:03:17;13.00;99.90
41678;DHT22;27364;49.026;8.712;2023-03-23T10:05:50;13.10;99.90
41678;DHT22;27364;49.026;8.712;2023-03-23T10:08:18;13.20;99.90
41678;DHT22;27364;49.026;8.712;2023-03-23T10:16:25;13.10;99.90
41678;DHT22;27364;49.026;8.712;2023-03-23T10:19:20;13.00;99.90
41678;DHT22;27364;49.026;8.712;2023-03-23T10:21:50;13.00;99.90
41678;DHT22;27364;49.026;8.712;2023-03-23T10:24:23;13.00;99.90
41678;DHT22;27364;49.026;8.712;2023-03-23T10:29:47;13.00;99.90
41678;DHT22;27364;49.026;8.712;2023-03-23T10:32:19;12.90;99.90
41678;DHT22;27364;49.026;8.712;2023-03-23T10:35:00;12.90;99.90
41678;DHT22;27364;49.026;8.712;2023-03-23T10:37:41;12.80;99.90
41678;DHT22;27364;49.026;8.712;2023-03-23T10:40:21;12.90;99.90
41678;DHT22;27364;49.026;8.712;2023-03-23T10:42:49;12.90;99.90
41678;DHT22;27364;49.026;8.712;2023-03-23T10:45:25;12.90;99.90
41678;DHT22;27364;49.026;8.712;2023-03-23T10:48:09;13.00;99.90
41678;DHT22;27364;49.026;8.712;2023-03-23T10:50:37;13.00;99.90
41678;DHT22;27364;49.026;8.712;2023-03-23T10:53:19;13.10;99.90
41678;DHT22;27364;49.026;8.712;2023-03-23T10:55:45;13.10;99.90
41678;DHT22;27364;49.026;8.712;2023-03-23T10:58:23;13.00;99.90
41678;DHT22;27364;49.026;8.712;2023-03-23T11:00:50;13.00;99.90
41678;DHT22;27364;49.026;8.712;2023-03-23T11:05:58;13.10;99.90
41678;DHT22;27364;49.026;8.712;2023-03-23T11:08:30;13.10;99.90
41678;DHT22;27364;49.026;8.712;2023-03-23T11:11:15;13.10;99.90
41678;DHT22;27364;49.026;8.712;2023-03-23T11:13:49;13.20;99.90
41678;DHT22;27364;49.026;8.712;2023-03-23T11:16:24;13.20;99.90
41678;DHT22;27364;49.026;8.712;2023-03-23T11:18:50;13.10;99.90
41678;DHT22;27364;49.026;8.712;2023-03-23T11:21:19;13.10;99.90
41678;DHT22;27364;49.026;8.712;2023-03-23T11:23:55;13.30;99.90
41678;DHT22;27364;49.026;8.712;2023-03-23T11:26:31;13.30;99.90
41678;DHT22;27364;49.026;8.712;2023-03-23T11:29:14;13.30;99.90
41678;DHT22;27364;49.026;8.712;2023-03-23T11:31:44;13.30;99.90
41678;DHT22;27364;49.026;8.712;2023-03-23T11:34:19;13.20;99.90
41678;DHT22;27364;49.026;8.712;2023-03-23T11:39:27;13.20;99.90
41678;DHT22;27364;49.026;8.712;2023-03-23T11:41:55;13.20;99.90
41678;DHT22;27364;49.026;8.712;2023-03-23T11:44:23;13.20;99.90
41678;DHT22;27364;49.026;8.712;2023-03-23T11:47:04;13.10;99.90
41678;DHT22;27364;49.026;8.712;2023-03-23T11:49:41;13.10;99.90
41678;DHT22;27364;49.026;8.712;2023-03-23T11:54:49;13.20;99.90
41678;DHT22;27364;49.026;8.712;2023-03-23T11:57:16;13.40;99.90
41678;DHT22;27364;49.026;8.712;2023-03-23T11:59:44;13.50;99.90
41678;DHT22;27364;49.026;8.712;2023-03-23T12:02:21;13.60;99.90
41678;DHT22;27364;49.026;8.712;2023-03-23T12:16:23;13.70;99.90
41678;DHT22;27364;49.026;8.712;2023-03-23T12:24:31;13.80;99.90
41678;DHT22;27364;49.026;8.712;2023-03-23T12:41:18;13.90;99.90
41678;DHT22;27364;49.026;8.712;2023-03-23T12:44:05;13.90;99.90
41678;DHT22;27364;49.026;8.712;2023-03-23T12:47:03;13.90;99.90
41678;DHT22;27364;49.026;8.712;2023-03-23T12:49:39;13.80;99.90
41678;DHT22;27364;49.026;8.712;2023-03-23T12:52:38;13.80;99.90
41678;DHT22;27364;49.026;8.712;2023-03-23T12:57:59;13.80;99.90
41678;DHT22;27364;49.026;8.712;2023-03-23T13:00:30;13.90;99.90
41678;DHT22;27364;49.026;8.712;2023-03-23T13:03:14;13.90;99.90
41678;DHT22;27364;49.026;8.712;2023-03-23T13:05:48;13.90;99.90
41678;DHT22;27364;49.026;8.712;2023-03-23T13:08:31;13.90;99.90
41678;DHT22;27364;49.026;8.712;2023-03-23T13:11:02;13.90;99.90
41678;DHT22;27364;49.026;8.712;2023-03-23T13:14:01;13.90;99.90
41678;DHT22;27364;49.026;8.712;2023-03-23T13:21:41;14.00;99.90
41678;DHT22;27364;49.026;8.712;2023-03-23T13:24:13;14.00;99.90
41678;DHT22;27364;49.026;8.712;2023-03-23T13:26:41;14.00;99.90
41678;DHT22;27364;49.026;8.712;2023-03-23T13:29:18;14.00;99.90
41678;DHT22;27364;49.026;8.712;2023-03-23T13:31:46;14.10;99.90
41678;DHT22;27364;49.026;8.712;2023-03-23T13:34:29;14.20;99.90
41678;DHT22;27364;49.026;8.712;2023-03-23T13:37:00;14.10;99.90
41678;DHT22;27364;49.026;8.712;2023-03-23T13:39:34;14.10;99.90
41678;DHT22;27364;49.026;8.712;2023-03-23T13:50:00;14.30;99.90
41678;DHT22;27364;49.026;8.712;2023-03-23T13:53:12;14.30;99.90
41678;DHT22;27364;49.026;8.712;2023-03-23T13:56:05;14.50;99.90
41678;DHT22;27364;49.026;8.712;2023-03-23T13:58:31;14.50;99.90
41678;DHT22;27364;49.026;8.712;2023-03-23T14:01:16;14.60;99.90
41678;DHT22;27364;49.026;8.712;2023-03-23T14:03:45;14.60;99.90
41678;DHT22;27364;49.026;8.712;2023-03-23T14:06:20;14.70;99.90
41678;DHT22;27364;49.026;8.712;2023-03-23T14:08:53;14.70;99.90
41678;DHT22;27364;49.026;8.712;2023-03-23T14:11:23;14.70;99.90
41678;DHT22;27364;49.026;8.712;2023-03-23T14:14:13;14.60;99.90
41678;DHT22;27364;49.026;8.712;2023-03-23T14:16:41;14.60;99.90
41678;DHT22;27364;49.026;8.712;2023-03-23T14:19:37;14.60;99.90
41678;DHT22;27364;49.026;8.712;2023-03-23T14:22:03;14.70;99.90
41678;DHT22;27364;49.026;8.712;2023-03-23T14:24:38;14.60;99.90
41678;DHT22;27364;49.026;8.712;2023-03-23T14:27:14;14.70;99.90
41678;DHT22;27364;49.026;8.712;2023-03-23T14:29:41;14.70;99.90
41678;DHT22;27364;49.026;8.712;2023-03-23T14:32:17;14.70;99.90
41678;DHT22;27364;49.026;8.712;2023-03-23T14:34:43;14.70;99.90
41678;DHT22;27364;49.026;8.712;2023-03-23T14:37:15;14.70;99.90
41678;DHT22;27364;49.026;8.712;2023-03-23T14:39:45;14.60;99.90
41678;DHT22;27364;49.026;8.712;2023-03-23T14:42:14;14.50;99.90
41678;DHT22;27364;49.026;8.712;2023-03-23T14:44:43;14.60;99.90
41678;DHT22;27364;49.026;8.712;2023-03-23T14:47:16;14.60;99.90
41678;DHT22;27364;49.026;8.712;2023-03-23T14:49:44;14.60;99.90
41678;DHT22;27364;49.026;8.712;2023-03-23T14:52:15;14.50;99.90
41678;DHT22;27364;49.026;8.712;2023-03-23T14:54:42;14.50;99.90
41678;DHT22;27364;49.026;8.712;2023-03-23T14:57:27;14.40;99.90
41678;DHT22;27364;49.026;8.712;2023-03-23T14:59:54;14.40;99.90
41678;DHT22;27364;49.026;8.712;2023-03-23T15:04:50;14.30;99.90
41678;DHT22;27364;49.026;8.712;2023-03-23T15:07:17;14.30;99.90
41678;DHT22;27364;49.026;8.712;2023-03-23T15:09:44;14.30;99.90
41678;DHT22;27364;49.026;8.712;2023-03-23T15:12:32;14.50;99.90
41678;DHT22;27364;49.026;8.712;2023-03-23T15:15:04;14.50;99.90
41678;DHT22;27364;49.026;8.712;2023-03-23T15:17:35;14.50;99.90
41678;DHT22;27364;49.026;8.712;2023-03-23T15:22:47;14.40;99.90
41678;DHT22;27364;49.026;8.712;2023-03-23T15:25:31;14.40;99.90
41678;DHT22;27364;49.026;8.712;2023-03-23T15:28:12;14.40;99.90
41678;DHT22;27364;49.026;8.712;2023-03-23T15:30:50;14.30;99.90
41678;DHT22;27364;49.026;8.712;2023-03-23T15:33:17;14.30;99.90
41678;DHT22;27364;49.026;8.712;2023-03-23T15:35:50;14.20;99.90
41678;DHT22;27364;49.026;8.712;2023-03-23T15:38:33;14.20;99.90
41678;DHT22;27364;49.026;8.712;2023-03-23T15:41:22;14.20;99.90
41678;DHT22;27364;49.026;8.712;2023-03-23T15:44:08;14.10;99.90
41678;DHT22;27364;49.026;8.712;2023-03-23T15:46:34;14.10;99.90
41678;DHT22;27364;49.026;8.712;2023-03-23T15:51:27;14.10;99.90
41678;DHT22;27364;49.026;8.712;2023-03-23T15:53:54;14.10;99.90
41678;DHT22;27364;49.026;8.712;2023-03-23T15:56:20;14.10;99.90
41678;DHT22;27364;49.026;8.712;2023-03-23T15:58:46;14.00;99.90
41678;DHT22;27364;49.026;8.712;2023-03-23T16:03:38;14.10;99.90
41678;DHT22;27364;49.026;8.712;2023-03-23T16:06:08;14.00;99.90
41678;DHT22;27364;49.026;8.712;2023-03-23T16:08:34;14.00;99.90
41678;DHT22;27364;49.026;8.712;2023-03-23T16:11:08;14.00;99.90
41678;DHT22;27364;49.026;8.712;2023-03-23T16:13:35;14.00;99.90
41678;DHT22;27364;49.026;8.712;2023-03-23T16:16:01;14.00;99.90
41678;DHT22;27364;49.026;8.712;2023-03-23T16:18:27;14.00;99.90
41678;DHT22;27364;49.026;8.712;2023-03-23T16:20:53;14.00;99.90
41678;DHT22;27364;49.026;8.712;2023-03-23T16:23:18;14.00;99.90
41678;DHT22;27364;49.026;8.712;2023-03-23T16:25:44;14.00;99.90
41678;DHT22;27364;49.026;8.712;2023-03-23T16:28:13;13.90;99.90
41678;DHT22;27364;49.026;8.712;2023-03-23T16:30:40;14.00;99.90
41678;DHT22;27364;49.026;8.712;2023-03-23T16:33:05;13.90;99.90
41678;DHT22;27364;49.026;8.712;2023-03-23T16:35:31;13.90;99.90
41678;DHT22;27364;49.026;8.712;2023-03-23T16:37:57;13.90;99.90
41678;DHT22;27364;49.026;8.712;2023-03-23T16:40:23;13.90;99.90
41678;DHT22;27364;49.026;8.712;2023-03-23T16:42:49;13.90;99.90
41678;DHT22;27364;49.026;8.712;2023-03-23T16:45:16;13.90;99.90
41678;DHT22;27364;49.026;8.712;2023-03-23T16:47:42;13.90;99.90
41678;DHT22;27364;49.026;8.712;2023-03-23T16:50:11;13.90;99.90
41678;DHT22;27364;49.026;8.712;2023-03-23T16:52:38;13.90;99.90
41678;DHT22;27364;49.026;8.712;2023-03-23T16:55:05;13.90;99.90
41678;DHT22;27364;49.026;8.712;2023-03-23T16:57:32;13.90;99.90
41678;DHT22;27364;49.026;8.712;2023-03-23T16:59:59;13.90;99.90
41678;DHT22;27364;49.026;8.712;2023-03-23T17:02:25;13.80;99.90
41678;DHT22;27364;49.026;8.712;2023-03-23T17:04:51;13.90;99.90
41678;DHT22;27364;49.026;8.712;2023-03-23T17:07:17;13.80;99.90
41678;DHT22;27364;49.026;8.712;2023-03-23T17:09:42;13.90;99.90
41678;DHT22;27364;49.026;8.712;2023-03-23T17:12:08;13.80;99.90
41678;DHT22;27364;49.026;8.712;2023-03-23T17:14:34;13.80;99.90
41678;DHT22;27364;49.026;8.712;2023-03-23T17:17:01;13.80;99.90
41678;DHT22;27364;49.026;8.712;2023-03-23T17:19:27;13.80;99.90
41678;DHT22;27364;49.026;8.712;2023-03-23T17:21:54;13.70;99.90
41678;DHT22;27364;49.026;8.712;2023-03-23T17:24:19;13.80;99.90
41678;DHT22;27364;49.026;8.712;2023-03-23T17:26:46;13.70;99.90
41678;DHT22;27364;49.026;8.712;2023-03-23T17:29:15;13.70;99.90